Time;durP1;ratioP1;P1;durP2;ratioP2;P2;SDS_P1;SDS_P2;PMS_P1;PMS_P2;Temp;Humidity;BMP_temperature;BMP_pressure;BME280_temperature;BME280_humidity;BME280_pressure;Samples;Min_cycle;Max_cycle;Signal;HPM_P1;HPM_P2
2023/05/19 00:00:59;;;;;;;;;;;13.60;74.70;;;;;;5028466;28;19913;-68
2023/05/19 00:03:25;;;;;;;;;;;13.60;74.60;;;;;;5047383;27;19907;-68
2023/05/19 00:05:55;;;;;;;;;;;13.50;74.80;;;;;;5043097;28;19939;-68
2023/05/19 00:08:23;;;;;;;;;;;13.50;74.80;;;;;;5028568;28;19913;-68
2023/05/19 00:10:49;;;;;;;;;;;13.40;74.80;;;;;;5046620;28;19965;-68
2023/05/19 00:13:14;;;;;;;;;;;13.40;74.90;;;;;;5028453;28;19915;-68
2023/05/19 00:15:40;;;;;;;;;;;13.40;74.70;;;;;;5046116;28;20357;-68
2023/05/19 00:18:07;;;;;;;;;;;13.40;75.00;;;;;;5046110;28;19912;-68
2023/05/19 00:20:33;;;;;;;;;;;13.30;75.00;;;;;;5046111;28;19913;-68
2023/05/19 00:22:58;;;;;;;;;;;13.30;75.10;;;;;;5046086;28;19945;-68
2023/05/19 00:25:24;;;;;;;;;;;13.30;75.00;;;;;;5046237;28;19928;-68
2023/05/19 00:27:50;;;;;;;;;;;13.30;75.20;;;;;;5027733;28;20522;-68
2023/05/19 00:30:15;;;;;;;;;;;13.20;75.10;;;;;;5045789;28;19920;-68
2023/05/19 00:32:41;;;;;;;;;;;13.20;75.20;;;;;;5046145;28;19920;-68
2023/05/19 00:35:06;;;;;;;;;;;13.20;75.50;;;;;;5046080;28;20565;-68
2023/05/19 00:37:32;;;;;;;;;;;13.20;75.40;;;;;;5028186;28;19973;-68
2023/05/19 00:39:58;;;;;;;;;;;13.10;75.70;;;;;;5046222;28;20370;-68
2023/05/19 00:42:24;;;;;;;;;;;13.10;75.40;;;;;;5045983;28;19944;-68
2023/05/19 00:44:50;;;;;;;;;;;13.10;75.60;;;;;;5043871;28;20329;-68
2023/05/19 00:47:15;;;;;;;;;;;13.00;75.10;;;;;;5045777;28;19934;-68
2023/05/19 00:49:41;;;;;;;;;;;13.00;75.80;;;;;;5045998;28;19912;-68
2023/05/19 00:52:06;;;;;;;;;;;13.00;76.20;;;;;;5045657;28;20000;-68
2023/05/19 00:54:32;;;;;;;;;;;12.90;76.00;;;;;;5028242;28;19917;-68
2023/05/19 00:56:58;;;;;;;;;;;12.90;75.30;;;;;;5045930;28;20024;-68
2023/05/19 00:59:24;;;;;;;;;;;12.90;75.90;;;;;;5045836;28;20000;-68
2023/05/19 01:01:49;;;;;;;;;;;12.90;76.00;;;;;;5045550;28;20638;-69
2023/05/19 01:04:18;;;;;;;;;;;12.90;75.90;;;;;;5045561;28;19916;-68
2023/05/19 01:06:53;;;;;;;;;;;12.80;75.90;;;;;;5045835;28;19934;-68
2023/05/19 01:09:22;;;;;;;;;;;12.80;75.40;;;;;;5046206;28;20007;-68
2023/05/19 01:11:48;;;;;;;;;;;12.80;75.80;;;;;;5045705;28;19919;-68
2023/05/19 01:14:14;;;;;;;;;;;12.80;76.30;;;;;;5045679;28;20008;-68
2023/05/19 01:16:40;;;;;;;;;;;12.70;76.10;;;;;;5027519;28;19997;-68
2023/05/19 01:19:25;;;;;;;;;;;12.70;76.60;;;;;;5045808;28;19913;-68
2023/05/19 01:21:59;;;;;;;;;;;12.70;76.70;;;;;;5045217;28;19925;-68
2023/05/19 01:24:26;;;;;;;;;;;12.70;76.70;;;;;;5045481;28;19952;-68
2023/05/19 01:27:11;;;;;;;;;;;12.60;76.80;;;;;;5027732;28;19951;-68
2023/05/19 01:29:39;;;;;;;;;;;12.60;76.80;;;;;;5027311;28;20563;-68
2023/05/19 01:32:06;;;;;;;;;;;12.60;76.90;;;;;;5041130;28;19913;-68
2023/05/19 01:34:33;;;;;;;;;;;12.60;77.10;;;;;;5037887;28;19944;-68
2023/05/19 01:36:59;;;;;;;;;;;12.50;77.00;;;;;;5045356;28;19913;-68
2023/05/19 01:39:26;;;;;;;;;;;12.50;77.10;;;;;;5045759;28;19916;-68
2023/05/19 01:41:52;;;;;;;;;;;12.50;77.10;;;;;;5048836;28;19919;-68
2023/05/19 01:44:20;;;;;;;;;;;12.50;77.20;;;;;;5046564;28;19923;-69
2023/05/19 01:46:47;;;;;;;;;;;12.40;77.10;;;;;;5049009;28;20273;-68
2023/05/19 01:49:13;;;;;;;;;;;12.40;77.10;;;;;;5048945;28;19940;-69
2023/05/19 01:51:38;;;;;;;;;;;12.40;77.30;;;;;;5048519;28;19952;-68
2023/05/19 01:54:04;;;;;;;;;;;12.30;77.20;;;;;;5048850;28;20015;-68
2023/05/19 01:57:05;;;;;;;;;;;12.30;77.30;;;;;;5048911;28;19909;-68
2023/05/19 01:59:36;;;;;;;;;;;12.30;77.40;;;;;;5069403;28;19908;-68
2023/05/19 02:02:06;;;;;;;;;;;12.30;77.30;;;;;;5051771;28;19960;-68
2023/05/19 02:04:49;;;;;;;;;;;12.30;77.30;;;;;;5030414;28;19917;-68
2023/05/19 02:07:36;;;;;;;;;;;12.30;77.40;;;;;;5048541;28;19909;-68
2023/05/19 02:10:05;;;;;;;;;;;12.20;77.20;;;;;;5048626;28;19953;-68
2023/05/19 02:12:31;;;;;;;;;;;12.20;77.20;;;;;;5048269;28;19948;-68
2023/05/19 02:15:01;;;;;;;;;;;12.20;77.40;;;;;;5048386;28;20404;-68
2023/05/19 02:17:31;;;;;;;;;;;12.10;77.30;;;;;;5030676;28;19909;-68
2023/05/19 02:19:57;;;;;;;;;;;12.10;77.30;;;;;;5048414;28;19944;-68
2023/05/19 02:22:23;;;;;;;;;;;12.10;77.40;;;;;;5048092;28;20639;-68
2023/05/19 02:24:50;;;;;;;;;;;12.10;77.30;;;;;;5048240;28;19917;-68
2023/05/19 02:27:16;;;;;;;;;;;12.10;77.40;;;;;;5048259;28;19924;-68
2023/05/19 02:29:41;;;;;;;;;;;12.00;77.30;;;;;;5048331;28;19909;-68
2023/05/19 02:32:07;;;;;;;;;;;12.00;77.40;;;;;;5047874;28;19912;-68
2023/05/19 02:34:32;;;;;;;;;;;12.10;77.50;;;;;;5048104;28;19917;-68
2023/05/19 02:36:58;;;;;;;;;;;12.00;77.70;;;;;;5029923;28;20357;-68
2023/05/19 02:39:23;;;;;;;;;;;12.00;77.70;;;;;;5030022;28;20276;-68
2023/05/19 02:41:49;;;;;;;;;;;12.00;77.60;;;;;;5047589;28;19988;-68
2023/05/19 02:44:14;;;;;;;;;;;11.90;77.80;;;;;;5029621;28;19917;-68
2023/05/19 02:46:40;;;;;;;;;;;11.90;77.80;;;;;;5047584;28;19934;-68
2023/05/19 02:49:06;;;;;;;;;;;11.90;77.80;;;;;;5047897;28;20273;-68
2023/05/19 02:51:31;;;;;;;;;;;11.90;77.70;;;;;;5046519;28;19917;-68
2023/05/19 02:53:56;;;;;;;;;;;11.90;77.80;;;;;;5030242;28;20477;-68
2023/05/19 02:56:22;;;;;;;;;;;11.80;77.80;;;;;;5047933;28;19920;-68
2023/05/19 02:58:47;;;;;;;;;;;11.90;78.00;;;;;;5047739;28;19913;-68
2023/05/19 03:01:13;;;;;;;;;;;11.80;77.80;;;;;;5047702;28;19913;-68
2023/05/19 03:03:39;;;;;;;;;;;11.80;78.00;;;;;;5029466;28;19917;-68
2023/05/19 03:06:07;;;;;;;;;;;11.80;78.00;;;;;;5047474;28;20015;-68
2023/05/19 03:08:33;;;;;;;;;;;11.80;77.80;;;;;;5047767;28;19919;-68
2023/05/19 03:10:59;;;;;;;;;;;11.80;77.90;;;;;;5047422;28;19924;-68
2023/05/19 03:13:25;;;;;;;;;;;11.80;78.10;;;;;;5047588;28;20265;-68
2023/05/19 03:15:50;;;;;;;;;;;11.80;78.10;;;;;;5047603;28;19942;-68
2023/05/19 03:18:16;;;;;;;;;;;11.80;78.10;;;;;;5047846;28;19936;-68
2023/05/19 03:20:43;;;;;;;;;;;11.70;78.00;;;;;;5047061;28;19917;-68
2023/05/19 03:23:09;;;;;;;;;;;11.70;78.10;;;;;;5047115;28;19917;-68
2023/05/19 03:25:35;;;;;;;;;;;11.70;78.10;;;;;;5047237;28;20348;-68
2023/05/19 03:28:00;;;;;;;;;;;11.60;78.00;;;;;;5047218;28;19909;-68
2023/05/19 03:30:26;;;;;;;;;;;11.70;78.10;;;;;;5047033;28;19913;-68
2023/05/19 03:32:52;;;;;;;;;;;11.60;78.00;;;;;;5046831;28;19912;-68
2023/05/19 03:35:17;;;;;;;;;;;11.60;78.10;;;;;;5046755;28;20011;-68
2023/05/19 03:37:43;;;;;;;;;;;11.60;78.10;;;;;;5046882;28;19913;-68
2023/05/19 03:40:09;;;;;;;;;;;11.60;78.20;;;;;;5046587;28;19913;-68
2023/05/19 03:42:34;;;;;;;;;;;11.60;78.20;;;;;;5028609;28;20003;-68
2023/05/19 03:45:00;;;;;;;;;;;11.60;78.20;;;;;;5044582;28;20016;-68
2023/05/19 03:47:25;;;;;;;;;;;11.60;78.20;;;;;;5046979;28;19919;-68
2023/05/19 03:49:51;;;;;;;;;;;11.50;78.20;;;;;;5047066;28;19909;-68
2023/05/19 03:52:17;;;;;;;;;;;11.50;78.10;;;;;;5046571;28;19970;-68
2023/05/19 03:54:42;;;;;;;;;;;11.50;78.20;;;;;;5046901;27;19970;-68
2023/05/19 03:57:10;;;;;;;;;;;11.50;78.20;;;;;;5046970;28;19961;-68
2023/05/19 03:59:36;;;;;;;;;;;11.50;78.20;;;;;;5029122;28;19917;-68
2023/05/19 04:02:02;;;;;;;;;;;11.50;78.20;;;;;;5046661;27;19909;-68
2023/05/19 04:04:27;;;;;;;;;;;11.50;78.10;;;;;;5046559;28;19927;-68
2023/05/19 04:06:53;;;;;;;;;;;11.50;78.30;;;;;;5046778;28;19913;-68
2023/05/19 04:09:18;;;;;;;;;;;11.40;78.30;;;;;;5046677;28;20490;-68
2023/05/19 04:11:44;;;;;;;;;;;11.50;78.30;;;;;;5046481;28;19920;-68
2023/05/19 04:14:10;;;;;;;;;;;11.50;78.30;;;;;;5046797;28;20670;-68
2023/05/19 04:16:39;;;;;;;;;;;11.40;78.20;;;;;;5046446;28;19912;-68
2023/05/19 04:19:04;;;;;;;;;;;11.40;78.20;;;;;;5028588;28;20426;-68
2023/05/19 04:21:30;;;;;;;;;;;11.40;78.30;;;;;;5046288;28;19917;-68
2023/05/19 04:23:57;;;;;;;;;;;11.40;78.30;;;;;;5046147;28;19912;-68
2023/05/19 04:26:25;;;;;;;;;;;11.40;78.30;;;;;;5028875;28;20680;-68
2023/05/19 04:28:51;;;;;;;;;;;11.40;78.30;;;;;;5046499;28;19912;-68
2023/05/19 04:31:17;;;;;;;;;;;11.40;78.40;;;;;;5028341;28;19913;-68
2023/05/19 04:33:42;;;;;;;;;;;11.40;78.30;;;;;;5028255;28;19935;-68
2023/05/19 04:36:09;;;;;;;;;;;11.40;78.40;;;;;;5046052;28;19964;-68
2023/05/19 04:38:39;;;;;;;;;;;11.40;78.50;;;;;;5046222;27;19946;-68
2023/05/19 04:41:05;;;;;;;;;;;11.40;78.40;;;;;;5045983;28;19921;-69
2023/05/19 04:43:30;;;;;;;;;;;11.30;78.40;;;;;;5043898;28;19986;-68
2023/05/19 04:45:57;;;;;;;;;;;11.40;78.60;;;;;;5027665;28;20314;-68
2023/05/19 04:48:22;;;;;;;;;;;11.40;78.50;;;;;;5046215;28;20056;-68
2023/05/19 04:50:48;;;;;;;;;;;11.30;78.40;;;;;;5027593;28;20007;-68
2023/05/19 04:53:14;;;;;;;;;;;11.30;78.50;;;;;;5045590;28;19913;-68
2023/05/19 04:55:39;;;;;;;;;;;11.30;78.50;;;;;;5045961;28;20420;-68
2023/05/19 04:58:05;;;;;;;;;;;11.30;78.50;;;;;;5045980;28;20365;-68
2023/05/19 05:00:31;;;;;;;;;;;11.30;78.50;;;;;;5045699;28;19979;-68
2023/05/19 05:02:56;;;;;;;;;;;11.30;78.70;;;;;;5027683;28;20284;-68
2023/05/19 05:05:23;;;;;;;;;;;11.30;78.70;;;;;;5045203;28;19921;-68
2023/05/19 05:07:49;;;;;;;;;;;11.30;78.60;;;;;;5045949;28;19952;-68
2023/05/19 05:10:14;;;;;;;;;;;11.30;78.40;;;;;;5045793;28;19960;-68
2023/05/19 05:12:40;;;;;;;;;;;11.20;78.50;;;;;;5045476;28;19912;-68
2023/05/19 05:15:06;;;;;;;;;;;11.20;78.60;;;;;;5044872;28;19913;-68
2023/05/19 05:17:32;;;;;;;;;;;11.20;78.70;;;;;;5028115;28;19921;-68
2023/05/19 05:19:58;;;;;;;;;;;11.20;78.70;;;;;;5045551;28;19920;-68
2023/05/19 05:22:23;;;;;;;;;;;11.20;78.70;;;;;;5045250;28;19921;-68
2023/05/19 05:24:49;;;;;;;;;;;11.20;78.70;;;;;;5045614;28;19920;-68
2023/05/19 05:27:15;;;;;;;;;;;11.20;78.80;;;;;;5045503;28;19920;-68
2023/05/19 05:29:40;;;;;;;;;;;11.20;78.80;;;;;;5045495;28;20348;-68
2023/05/19 05:32:06;;;;;;;;;;;11.20;78.70;;;;;;5045183;28;19913;-68
2023/05/19 05:34:32;;;;;;;;;;;11.20;78.70;;;;;;5027500;28;20438;-68
2023/05/19 05:36:57;;;;;;;;;;;11.20;78.70;;;;;;5045089;28;19919;-68
2023/05/19 05:39:23;;;;;;;;;;;11.20;78.80;;;;;;5045324;28;19989;-68
2023/05/19 05:41:48;;;;;;;;;;;11.20;78.80;;;;;;5027085;28;19913;-68
2023/05/19 05:44:14;;;;;;;;;;;11.20;78.80;;;;;;5043180;28;19924;-68
2023/05/19 05:46:39;;;;;;;;;;;11.20;78.80;;;;;;5026798;28;20412;-68
2023/05/19 05:49:05;;;;;;;;;;;11.20;78.90;;;;;;5045167;28;19962;-68
2023/05/19 05:51:31;;;;;;;;;;;11.30;78.90;;;;;;5045112;28;19913;-68
2023/05/19 05:53:58;;;;;;;;;;;11.20;78.80;;;;;;5045070;28;19912;-68
2023/05/19 05:56:25;;;;;;;;;;;11.20;78.90;;;;;;5045320;28;20254;-68
2023/05/19 05:58:51;;;;;;;;;;;11.30;78.90;;;;;;5027318;28;19913;-68
2023/05/19 06:01:16;;;;;;;;;;;11.30;78.90;;;;;;5045241;28;19916;-68
2023/05/19 06:03:45;;;;;;;;;;;11.30;78.90;;;;;;5042303;28;19913;-68
2023/05/19 06:06:11;;;;;;;;;;;11.30;78.90;;;;;;5039263;28;19916;-68
2023/05/19 06:08:36;;;;;;;;;;;11.30;78.90;;;;;;5027117;28;20348;-68
2023/05/19 06:11:07;;;;;;;;;;;11.30;78.80;;;;;;5045047;28;19942;-68
2023/05/19 06:13:35;;;;;;;;;;;11.30;78.90;;;;;;5044912;28;19945;-68
2023/05/19 06:16:01;;;;;;;;;;;11.30;78.80;;;;;;5044644;28;19970;-68
2023/05/19 06:18:27;;;;;;;;;;;11.40;78.90;;;;;;5027204;28;20620;-68
2023/05/19 06:20:53;;;;;;;;;;;11.40;78.70;;;;;;5059781;28;20003;-68
2023/05/19 06:23:18;;;;;;;;;;;11.40;79.50;;;;;;5044717;28;19916;-68
2023/05/19 06:25:44;;;;;;;;;;;11.40;78.80;;;;;;5045587;28;20514;-68
2023/05/19 06:28:09;;;;;;;;;;;11.40;78.90;;;;;;5048487;28;19916;-68
2023/05/19 06:30:35;;;;;;;;;;;11.40;78.70;;;;;;5047900;28;20588;-68
2023/05/19 06:33:01;;;;;;;;;;;11.40;78.80;;;;;;5047385;28;19917;-68
2023/05/19 06:35:27;;;;;;;;;;;11.40;78.70;;;;;;5029964;28;19909;-68
2023/05/19 06:37:54;;;;;;;;;;;11.40;78.70;;;;;;5047669;28;19920;-68
2023/05/19 06:40:20;;;;;;;;;;;11.50;78.80;;;;;;5047925;28;19909;-68
2023/05/19 06:42:45;;;;;;;;;;;11.50;78.60;;;;;;5029503;28;19935;-68
2023/05/19 06:45:11;;;;;;;;;;;11.50;78.70;;;;;;5045502;28;19921;-68
2023/05/19 06:47:36;;;;;;;;;;;11.50;78.60;;;;;;5047752;28;19912;-68
2023/05/19 06:50:02;;;;;;;;;;;11.50;78.70;;;;;;5047632;28;19919;-68
2023/05/19 06:52:27;;;;;;;;;;;11.50;78.60;;;;;;5045938;28;20353;-68
2023/05/19 06:54:53;;;;;;;;;;;11.60;78.50;;;;;;5047661;28;19913;-68
2023/05/19 06:57:18;;;;;;;;;;;11.60;78.50;;;;;;5047911;28;20300;-68
2023/05/19 06:59:45;;;;;;;;;;;11.60;78.50;;;;;;5047894;28;19913;-68
2023/05/19 07:02:11;;;;;;;;;;;11.60;78.50;;;;;;5047119;28;19958;-68
2023/05/19 07:04:36;;;;;;;;;;;11.60;78.50;;;;;;5047591;28;20315;-68
2023/05/19 07:07:02;;;;;;;;;;;11.60;78.40;;;;;;5047470;28;19909;-68
2023/05/19 07:09:27;;;;;;;;;;;11.60;78.40;;;;;;5047634;28;20482;-68
2023/05/19 07:11:55;;;;;;;;;;;11.70;78.40;;;;;;5029506;28;20608;-68
2023/05/19 07:14:20;;;;;;;;;;;11.70;78.30;;;;;;5047620;28;19920;-68
2023/05/19 07:16:46;;;;;;;;;;;11.70;78.40;;;;;;5047574;28;19913;-68
2023/05/19 07:19:11;;;;;;;;;;;11.70;78.30;;;;;;5047411;28;20386;-68
2023/05/19 07:21:37;;;;;;;;;;;11.80;78.30;;;;;;5047282;28;20027;-68
2023/05/19 07:24:02;;;;;;;;;;;11.80;78.10;;;;;;5047247;28;19920;-68
2023/05/19 07:26:28;;;;;;;;;;;11.80;78.20;;;;;;5047382;28;19960;-68
2023/05/19 07:28:53;;;;;;;;;;;11.80;78.10;;;;;;5047337;28;19920;-68
2023/05/19 07:31:19;;;;;;;;;;;11.90;78.20;;;;;;5029146;28;19915;-68
2023/05/19 07:33:45;;;;;;;;;;;11.90;78.10;;;;;;5046980;28;20029;-68
2023/05/19 07:36:10;;;;;;;;;;;11.90;78.10;;;;;;5046775;28;19920;-68
2023/05/19 07:38:36;;;;;;;;;;;11.90;78.00;;;;;;5046281;28;20584;-68
2023/05/19 07:41:01;;;;;;;;;;;12.00;77.90;;;;;;5046425;28;19919;-68
2023/05/19 07:43:27;;;;;;;;;;;12.00;77.90;;;;;;5044911;28;19913;-68
2023/05/19 07:45:54;;;;;;;;;;;12.00;77.70;;;;;;5046422;28;19959;-68
2023/05/19 07:48:21;;;;;;;;;;;12.00;77.70;;;;;;5046742;28;19916;-68
2023/05/19 07:50:47;;;;;;;;;;;12.00;77.70;;;;;;5046547;28;19913;-68
2023/05/19 07:53:13;;;;;;;;;;;12.10;77.70;;;;;;5028120;28;20018;-68
2023/05/19 07:55:39;;;;;;;;;;;12.10;77.60;;;;;;5044869;28;20033;-68
2023/05/19 07:58:04;;;;;;;;;;;12.10;77.60;;;;;;5046452;28;19931;-68
2023/05/19 08:00:30;;;;;;;;;;;12.20;77.60;;;;;;5046731;28;20326;-68
2023/05/19 08:02:56;;;;;;;;;;;12.20;77.50;;;;;;5045526;28;19944;-68
2023/05/19 08:05:22;;;;;;;;;;;12.20;77.40;;;;;;5046320;28;19952;-68
2023/05/19 08:07:47;;;;;;;;;;;12.20;77.30;;;;;;5046672;28;19947;-68
2023/05/19 08:10:13;;;;;;;;;;;12.30;77.40;;;;;;5046580;28;19947;-68
2023/05/19 08:12:39;;;;;;;;;;;12.30;77.40;;;;;;5046137;28;19917;-68
2023/05/19 08:15:05;;;;;;;;;;;12.40;77.30;;;;;;5046432;28;19909;-68
2023/05/19 08:17:30;;;;;;;;;;;12.40;77.20;;;;;;5046593;28;19909;-68
2023/05/19 08:19:56;;;;;;;;;;;12.40;77.20;;;;;;5046175;28;20361;-68
2023/05/19 08:22:21;;;;;;;;;;;12.40;77.20;;;;;;5050314;27;19917;-68
2023/05/19 08:24:48;;;;;;;;;;;12.50;77.10;;;;;;5046564;27;19917;-68
2023/05/19 08:27:15;;;;;;;;;;;12.50;77.10;;;;;;5046062;28;19913;-68
2023/05/19 08:29:41;;;;;;;;;;;12.50;77.00;;;;;;5045527;28;20475;-68
2023/05/19 08:32:06;;;;;;;;;;;12.50;76.90;;;;;;5046027;28;19913;-68
2023/05/19 08:34:32;;;;;;;;;;;12.60;76.90;;;;;;5046201;28;19988;-68
2023/05/19 08:36:58;;;;;;;;;;;12.60;76.90;;;;;;5045770;28;19956;-68
2023/05/19 08:39:25;;;;;;;;;;;12.60;76.80;;;;;;5045929;28;20650;-68
2023/05/19 08:41:52;;;;;;;;;;;12.60;76.80;;;;;;5045736;28;19977;-68
2023/05/19 08:44:17;;;;;;;;;;;12.70;76.90;;;;;;5043883;28;20338;-68
2023/05/19 08:46:43;;;;;;;;;;;12.70;76.70;;;;;;5045799;28;20007;-68
2023/05/19 08:49:10;;;;;;;;;;;12.80;76.60;;;;;;5038043;28;20257;-68
2023/05/19 08:51:54;;;;;;;;;;;12.80;76.60;;;;;;5030772;28;19938;-68
2023/05/19 08:54:24;;;;;;;;;;;12.80;76.60;;;;;;5044783;28;19917;-68
2023/05/19 08:56:50;;;;;;;;;;;12.80;76.40;;;;;;5042074;28;19975;-68
2023/05/19 08:59:16;;;;;;;;;;;12.90;76.40;;;;;;5008143;28;20468;-68
2023/05/19 09:01:43;;;;;;;;;;;12.90;76.40;;;;;;5025836;28;19917;-68
2023/05/19 09:04:08;;;;;;;;;;;12.90;76.30;;;;;;5034257;28;20037;-68
2023/05/19 09:06:34;;;;;;;;;;;13.00;76.30;;;;;;5045306;28;20378;-68
2023/05/19 09:09:00;;;;;;;;;;;13.00;76.20;;;;;;5041894;28;19913;-68
2023/05/19 09:11:25;;;;;;;;;;;13.00;76.00;;;;;;5040832;28;19952;-68
2023/05/19 09:13:51;;;;;;;;;;;13.10;76.00;;;;;;5025289;28;19917;-68
2023/05/19 09:16:17;;;;;;;;;;;13.20;75.90;;;;;;5025463;28;19913;-67
2023/05/19 09:19:03;;;;;;;;;;;13.20;75.80;;;;;;5025639;28;19924;-68
2023/05/19 09:21:31;;;;;;;;;;;13.20;75.70;;;;;;5007499;28;20437;-68
2023/05/19 09:23:58;;;;;;;;;;;13.30;75.70;;;;;;5025413;28;19942;-67
2023/05/19 09:26:23;;;;;;;;;;;13.40;75.50;;;;;;5025476;28;20607;-68
2023/05/19 09:28:49;;;;;;;;;;;13.40;75.50;;;;;;5025464;28;19917;-68
2023/05/19 09:31:15;;;;;;;;;;;13.50;75.50;;;;;;5040577;28;19916;-68
2023/05/19 09:33:41;;;;;;;;;;;13.50;75.40;;;;;;5012560;28;19964;-67
2023/05/19 09:36:07;;;;;;;;;;;13.50;75.30;;;;;;5045096;28;19917;-68
2023/05/19 09:38:39;;;;;;;;;;;13.60;75.30;;;;;;5044997;28;20484;-68
2023/05/19 09:41:06;;;;;;;;;;;13.60;75.20;;;;;;5045056;28;19965;-68
2023/05/19 09:43:32;;;;;;;;;;;13.70;75.10;;;;;;5044440;28;19917;-68
2023/05/19 09:46:07;;;;;;;;;;;13.70;75.00;;;;;;5044433;28;20592;-68
2023/05/19 09:48:34;;;;;;;;;;;13.80;75.00;;;;;;5045059;28;19913;-68
2023/05/19 09:51:01;;;;;;;;;;;13.90;74.80;;;;;;5044931;28;19920;-68
2023/05/19 09:53:29;;;;;;;;;;;13.90;74.60;;;;;;5044738;28;19917;-68
2023/05/19 09:55:56;;;;;;;;;;;14.00;74.50;;;;;;5045004;28;19948;-68
2023/05/19 09:58:23;;;;;;;;;;;14.10;74.50;;;;;;5044933;28;19909;-68
2023/05/19 10:00:49;;;;;;;;;;;14.10;74.50;;;;;;5045815;28;19985;-68
2023/05/19 10:03:15;;;;;;;;;;;14.20;74.40;;;;;;5048333;28;20447;-68
2023/05/19 10:05:41;;;;;;;;;;;14.20;74.20;;;;;;5048485;28;19924;-68
2023/05/19 10:08:09;;;;;;;;;;;14.30;74.20;;;;;;5048349;28;19917;-68
2023/05/19 10:10:35;;;;;;;;;;;14.30;74.10;;;;;;5048260;28;19919;-68
2023/05/19 10:13:02;;;;;;;;;;;14.40;74.30;;;;;;5048209;28;19939;-68
2023/05/19 10:15:28;;;;;;;;;;;14.50;74.20;;;;;;5048136;28;19913;-68
2023/05/19 10:17:55;;;;;;;;;;;14.50;74.20;;;;;;5048208;28;19965;-68
2023/05/19 10:20:20;;;;;;;;;;;14.50;73.80;;;;;;5030322;28;19995;-68
2023/05/19 10:22:47;;;;;;;;;;;14.60;74.20;;;;;;5047757;28;20016;-68
2023/05/19 10:25:14;;;;;;;;;;;14.70;74.30;;;;;;5048188;28;19963;-68
2023/05/19 10:27:42;;;;;;;;;;;14.80;74.40;;;;;;5048115;28;19913;-68
2023/05/19 10:30:13;;;;;;;;;;;14.80;74.30;;;;;;5048145;28;19915;-68
2023/05/19 10:32:40;;;;;;;;;;;14.90;73.90;;;;;;5047851;28;19917;-69
2023/05/19 10:35:19;;;;;;;;;;;15.00;74.30;;;;;;5047962;28;19913;-68
2023/05/19 10:38:03;;;;;;;;;;;15.10;74.00;;;;;;5047872;28;19912;-69
2023/05/19 10:40:32;;;;;;;;;;;15.20;74.50;;;;;;5047702;28;19960;-69
2023/05/19 10:43:06;;;;;;;;;;;15.30;74.80;;;;;;5047731;28;19920;-68
2023/05/19 10:45:35;;;;;;;;;;;15.40;74.60;;;;;;5045656;28;19921;-69
2023/05/19 10:48:00;;;;;;;;;;;15.50;74.20;;;;;;5046907;28;19920;-69
2023/05/19 10:50:26;;;;;;;;;;;15.60;74.60;;;;;;5040093;28;20262;-68
2023/05/19 10:52:54;;;;;;;;;;;15.70;74.60;;;;;;5046962;28;19958;-68
2023/05/19 10:55:39;;;;;;;;;;;15.80;74.80;;;;;;5047750;28;19916;-69
2023/05/19 10:58:05;;;;;;;;;;;15.90;74.80;;;;;;5039134;28;19916;-69
2023/05/19 11:00:31;;;;;;;;;;;16.00;74.40;;;;;;5047092;28;19912;-68
2023/05/19 11:03:12;;;;;;;;;;;16.10;74.80;;;;;;5046849;28;20470;-68
2023/05/19 11:05:37;;;;;;;;;;;16.30;74.90;;;;;;5009706;28;20012;-69
2023/05/19 11:08:04;;;;;;;;;;;16.40;74.80;;;;;;5040649;28;20608;-68
2023/05/19 11:10:30;;;;;;;;;;;16.50;74.30;;;;;;5047665;28;19915;-69
2023/05/19 11:12:56;;;;;;;;;;;16.70;74.30;;;;;;5046387;28;19912;-69
2023/05/19 11:15:24;;;;;;;;;;;16.70;74.90;;;;;;5047591;28;20368;-69
2023/05/19 11:17:49;;;;;;;;;;;16.90;74.80;;;;;;5047303;28;20050;-69
2023/05/19 11:20:25;;;;;;;;;;;16.90;75.00;;;;;;5047613;28;19995;-69
2023/05/19 11:23:05;;;;;;;;;;;17.00;74.90;;;;;;5046950;28;19921;-69
2023/05/19 11:25:40;;;;;;;;;;;17.20;74.80;;;;;;5047286;28;19924;-69
2023/05/19 11:28:06;;;;;;;;;;;17.30;74.90;;;;;;5047391;28;20664;-68
2023/05/19 11:30:32;;;;;;;;;;;17.40;74.90;;;;;;5036571;28;19938;-69
2023/05/19 11:32:57;;;;;;;;;;;17.40;74.90;;;;;;5046414;28;19924;-69
2023/05/19 11:35:23;;;;;;;;;;;17.50;74.80;;;;;;5047090;28;19917;-68
2023/05/19 11:37:51;;;;;;;;;;;17.60;74.70;;;;;;5047048;28;19970;-69
2023/05/19 11:40:16;;;;;;;;;;;17.70;74.70;;;;;;5029319;28;20661;-69
2023/05/19 11:42:43;;;;;;;;;;;17.80;74.70;;;;;;5046755;28;20004;-68
2023/05/19 11:45:09;;;;;;;;;;;17.90;74.60;;;;;;5044873;28;19935;-69
2023/05/19 11:47:34;;;;;;;;;;;18.00;74.60;;;;;;5046685;28;19913;-68
2023/05/19 11:50:00;;;;;;;;;;;18.10;74.70;;;;;;5046972;28;19963;-68
2023/05/19 11:52:29;;;;;;;;;;;18.20;74.50;;;;;;5046631;28;19913;-69
2023/05/19 11:54:59;;;;;;;;;;;18.30;74.70;;;;;;5046912;28;20549;-68
2023/05/19 11:57:25;;;;;;;;;;;18.30;74.90;;;;;;5046955;28;19952;-68
2023/05/19 11:59:52;;;;;;;;;;;18.40;74.80;;;;;;5047145;28;19917;-68
2023/05/19 12:02:18;;;;;;;;;;;18.50;74.70;;;;;;5046631;28;19924;-69
2023/05/19 12:04:44;;;;;;;;;;;18.50;75.00;;;;;;5046374;28;19923;-68
2023/05/19 12:07:11;;;;;;;;;;;18.70;75.10;;;;;;5027593;28;20522;-69
2023/05/19 12:09:36;;;;;;;;;;;18.70;74.80;;;;;;5046720;28;19917;-68
2023/05/19 12:12:02;;;;;;;;;;;18.70;74.80;;;;;;5044150;28;20421;-69
2023/05/19 12:14:29;;;;;;;;;;;18.80;74.60;;;;;;5045607;28;19923;-69
2023/05/19 12:16:55;;;;;;;;;;;18.90;74.90;;;;;;5028500;28;19973;-69
2023/05/19 12:19:24;;;;;;;;;;;19.00;74.70;;;;;;5046630;28;20400;-69
2023/05/19 12:21:50;;;;;;;;;;;19.10;74.90;;;;;;5046036;28;20373;-69
2023/05/19 12:24:16;;;;;;;;;;;19.10;74.50;;;;;;5041404;28;19912;-69
2023/05/19 12:26:42;;;;;;;;;;;19.20;74.50;;;;;;5046533;28;19913;-69
2023/05/19 12:29:07;;;;;;;;;;;19.30;74.30;;;;;;5046477;28;20411;-69
2023/05/19 12:31:33;;;;;;;;;;;19.40;74.40;;;;;;5028284;28;19913;-69
2023/05/19 12:34:00;;;;;;;;;;;19.40;74.60;;;;;;5046395;28;19924;-69
2023/05/19 12:36:27;;;;;;;;;;;19.30;74.80;;;;;;5046194;28;19941;-69
2023/05/19 12:38:53;;;;;;;;;;;19.30;74.90;;;;;;5046193;28;19912;-69
2023/05/19 12:41:19;;;;;;;;;;;19.40;75.20;;;;;;5045824;28;19920;-67
2023/05/19 12:43:44;;;;;;;;;;;19.50;75.00;;;;;;5043972;28;19913;-69
2023/05/19 12:46:14;;;;;;;;;;;19.60;75.00;;;;;;5045679;28;19919;-69
2023/05/19 12:48:41;;;;;;;;;;;19.60;75.00;;;;;;5045800;28;19909;-69
2023/05/19 12:51:07;;;;;;;;;;;19.60;75.60;;;;;;5043893;28;20036;-69
2023/05/19 12:53:33;;;;;;;;;;;19.70;75.70;;;;;;5043450;28;21043;-69
2023/05/19 12:55:59;;;;;;;;;;;19.80;74.90;;;;;;5045614;28;19912;-69
2023/05/19 12:58:24;;;;;;;;;;;19.80;74.30;;;;;;5045453;28;20453;-69
2023/05/19 13:00:50;;;;;;;;;;;19.90;74.90;;;;;;5045625;28;19913;-69
2023/05/19 13:03:17;;;;;;;;;;;20.00;74.70;;;;;;5044951;28;19913;-69
2023/05/19 13:05:45;;;;;;;;;;;20.00;73.90;;;;;;5045645;28;19917;-69
2023/05/19 13:08:11;;;;;;;;;;;20.10;74.00;;;;;;5045479;28;19913;-69
2023/05/19 13:10:38;;;;;;;;;;;20.20;73.90;;;;;;5045745;28;19944;-69
2023/05/19 13:13:03;;;;;;;;;;;20.30;74.20;;;;;;5045577;28;19969;-69
2023/05/19 13:15:32;;;;;;;;;;;20.30;73.60;;;;;;5045482;28;20363;-69
2023/05/19 13:17:59;;;;;;;;;;;20.40;73.80;;;;;;5045619;28;19913;-69
2023/05/19 13:20:25;;;;;;;;;;;20.50;73.60;;;;;;5045473;28;19942;-69
2023/05/19 13:22:50;;;;;;;;;;;20.50;73.70;;;;;;5045400;28;19920;-69
2023/05/19 13:25:16;;;;;;;;;;;20.50;73.80;;;;;;5027442;28;19923;-69
2023/05/19 13:27:43;;;;;;;;;;;20.60;73.80;;;;;;5045697;28;19916;-69
2023/05/19 13:30:08;;;;;;;;;;;20.60;72.20;;;;;;5027541;28;19916;-69
2023/05/19 13:32:34;;;;;;;;;;;20.70;71.50;;;;;;5045032;28;19912;-69
2023/05/19 13:35:00;;;;;;;;;;;20.80;73.80;;;;;;5044743;28;20361;-69
2023/05/19 13:37:26;;;;;;;;;;;20.90;74.00;;;;;;5045110;28;20012;-69
2023/05/19 13:39:51;;;;;;;;;;;20.90;73.90;;;;;;5060455;28;19991;-69
2023/05/19 13:42:17;;;;;;;;;;;20.90;73.50;;;;;;5044916;28;19920;-69
2023/05/19 13:44:46;;;;;;;;;;;20.90;73.70;;;;;;5043182;28;19923;-69
2023/05/19 13:47:11;;;;;;;;;;;21.00;73.90;;;;;;5045033;28;20610;-69
2023/05/19 13:49:37;;;;;;;;;;;21.00;73.80;;;;;;5045226;28;19920;-69
2023/05/19 13:52:03;;;;;;;;;;;21.10;73.70;;;;;;5026776;28;19913;-69
2023/05/19 13:54:28;;;;;;;;;;;21.10;73.70;;;;;;5045272;28;19917;-69
2023/05/19 13:56:54;;;;;;;;;;;21.10;73.50;;;;;;5045268;28;20258;-69
2023/05/19 13:59:23;;;;;;;;;;;21.20;73.10;;;;;;5045312;28;19916;-69
2023/05/19 14:01:49;;;;;;;;;;;21.20;73.60;;;;;;5045179;28;20372;-69
2023/05/19 14:04:16;;;;;;;;;;;21.30;73.30;;;;;;5045144;28;19909;-69
2023/05/19 14:06:42;;;;;;;;;;;21.30;73.30;;;;;;5060375;27;19909;-69
2023/05/19 14:09:07;;;;;;;;;;;21.30;73.30;;;;;;5045133;28;20376;-69
2023/05/19 14:11:33;;;;;;;;;;;21.40;72.70;;;;;;5045056;28;19913;-69
2023/05/19 14:13:58;;;;;;;;;;;21.50;73.10;;;;;;5044569;28;20031;-69